Time;durP1;ratioP1;P1;durP2;ratioP2;P2;SDS_P1;SDS_P2;PMS_P1;PMS_P2;Temp;Humidity;BMP_temperature;BMP_pressure;BME280_temperature;BME280_humidity;BME280_pressure;Samples;Min_cycle;Max_cycle;Signal;HPM_P1;HPM_P2
2021/04/30 00:02:16;;;;;;;1.65;0.85;;;;;;;;;;5110714;28;20398;-74
2021/04/30 00:04:42;;;;;;;0.57;0.52;;;;;;;;;;5109605;28;20037;-74
2021/04/30 00:07:08;;;;;;;0.45;0.45;;;;;;;;;;5109581;28;20042;-74
2021/04/30 00:09:34;;;;;;;1.08;0.82;;;;;;;;;;5110197;28;20398;-74
2021/04/30 00:12:00;;;;;;;0.70;0.70;;;;;;;;;;5109539;28;20430;-74
2021/04/30 00:14:26;;;;;;;0.77;0.60;;;;;;;;;;5109825;28;20434;-74
2021/04/30 00:16:53;;;;;;;0.93;0.57;;;;;;;;;;5110296;28;20035;-74
2021/04/30 00:19:19;;;;;;;0.50;0.47;;;;;;;;;;5110867;28;20054;-74
2021/04/30 00:21:45;;;;;;;0.30;0.30;;;;;;;;;;5109788;28;20050;-74
2021/04/30 00:24:13;;;;;;;0.40;0.40;;;;;;;;;;5110520;28;20024;-75
2021/04/30 00:26:39;;;;;;;0.85;0.80;;;;;;;;;;5109707;28;20024;-74
2021/04/30 00:29:06;;;;;;;0.40;0.40;;;;;;;;;;5109626;28;20059;-74
2021/04/30 00:31:32;;;;;;;0.30;0.30;;;;;;;;;;5109860;28;20042;-74
2021/04/30 00:33:59;;;;;;;0.40;0.40;;;;;;;;;;5109237;28;20599;-74
2021/04/30 00:36:25;;;;;;;0.80;0.77;;;;;;;;;;5109396;28;20114;-75
2021/04/30 00:38:51;;;;;;;0.30;0.30;;;;;;;;;;5108891;28;20040;-74
2021/04/30 00:41:17;;;;;;;0.47;0.47;;;;;;;;;;5109674;28;20475;-74
2021/04/30 00:43:43;;;;;;;0.75;0.55;;;;;;;;;;5109080;28;20394;-74
2021/04/30 00:46:09;;;;;;;0.75;0.75;;;;;;;;;;5110112;28;20032;-74
2021/04/30 00:48:35;;;;;;;0.50;0.50;;;;;;;;;;5109488;28;20028;-73
2021/04/30 00:51:01;;;;;;;0.47;0.47;;;;;;;;;;5108815;28;20104;-74
2021/04/30 00:53:27;;;;;;;0.25;0.25;;;;;;;;;;5109373;28;20043;-75
2021/04/30 00:55:53;;;;;;;0.50;0.50;;;;;;;;;;5109413;28;20058;-74
2021/04/30 00:58:20;;;;;;;0.50;0.50;;;;;;;;;;5109701;28;20031;-75
2021/04/30 01:00:46;;;;;;;0.50;0.50;;;;;;;;;;5108967;28;20016;-74
2021/04/30 01:03:12;;;;;;;0.68;0.50;;;;;;;;;;5109196;28;20486;-74
2021/04/30 01:05:39;;;;;;;0.30;0.30;;;;;;;;;;5107259;28;20055;-74
2021/04/30 01:08:06;;;;;;;0.52;0.52;;;;;;;;;;5107261;28;20110;-74
2021/04/30 01:10:32;;;;;;;1.00;0.75;;;;;;;;;;5108446;28;20024;-74
2021/04/30 01:12:58;;;;;;;0.32;0.32;;;;;;;;;;5107437;28;20050;-74
2021/04/30 01:15:25;;;;;;;0.50;0.50;;;;;;;;;;5109230;28;20034;-74
2021/04/30 01:17:51;;;;;;;0.45;0.35;;;;;;;;;;5107958;28;20045;-74
2021/04/30 01:20:18;;;;;;;0.43;0.40;;;;;;;;;;5108083;28;20053;-75
2021/04/30 01:22:46;;;;;;;0.47;0.38;;;;;;;;;;5107760;28;20040;-74
2021/04/30 01:25:16;;;;;;;0.40;0.30;;;;;;;;;;5109070;28;20023;-74
2021/04/30 01:27:43;;;;;;;0.57;0.50;;;;;;;;;;5108540;28;20038;-74
2021/04/30 01:30:14;;;;;;;0.30;0.30;;;;;;;;;;5107744;28;20096;-74
2021/04/30 01:32:40;;;;;;;0.30;0.30;;;;;;;;;;5108804;28;20122;-74
2021/04/30 01:35:06;;;;;;;0.73;0.38;;;;;;;;;;5108229;28;20106;-74
2021/04/30 01:37:33;;;;;;;0.30;0.30;;;;;;;;;;5108462;28;20020;-74
2021/04/30 01:39:59;;;;;;;0.30;0.30;;;;;;;;;;5105957;28;20047;-74
2021/04/30 01:42:25;;;;;;;0.85;0.63;;;;;;;;;;5108937;28;20034;-74
2021/04/30 01:44:51;;;;;;;0.43;0.43;;;;;;;;;;5107018;28;20028;-75
2021/04/30 01:47:18;;;;;;;0.47;0.30;;;;;;;;;;5109209;28;20050;-75
2021/04/30 01:49:44;;;;;;;0.40;0.40;;;;;;;;;;5107010;28;20028;-74
2021/04/30 01:52:11;;;;;;;0.15;0.15;;;;;;;;;;5108605;28;20465;-74
2021/04/30 01:54:37;;;;;;;0.30;0.20;;;;;;;;;;5108321;28;20040;-74
2021/04/30 01:57:03;;;;;;;0.30;0.30;;;;;;;;;;5108175;28;20561;-74
2021/04/30 01:59:29;;;;;;;0.50;0.50;;;;;;;;;;5107409;28;20071;-75
2021/04/30 02:01:55;;;;;;;0.32;0.32;;;;;;;;;;5106586;28;20096;-74
2021/04/30 02:04:21;;;;;;;0.22;0.22;;;;;;;;;;5108915;28;20494;-74
2021/04/30 02:06:47;;;;;;;0.98;0.40;;;;;;;;;;5106844;28;20032;-74
2021/04/30 02:09:14;;;;;;;0.30;0.30;;;;;;;;;;5108447;28;20027;-75
2021/04/30 02:11:40;;;;;;;0.47;0.40;;;;;;;;;;5107612;28;20024;-74
2021/04/30 02:14:06;;;;;;;0.25;0.25;;;;;;;;;;5107988;28;20134;-74
2021/04/30 02:16:33;;;;;;;0.50;0.50;;;;;;;;;;5108666;28;20032;-74
2021/04/30 02:18:59;;;;;;;0.20;0.20;;;;;;;;;;5107916;28;20061;-74
2021/04/30 02:21:25;;;;;;;1.33;0.40;;;;;;;;;;5108939;28;20475;-75
2021/04/30 02:23:52;;;;;;;0.20;0.20;;;;;;;;;;5112038;28;20506;-74
2021/04/30 02:26:18;;;;;;;0.20;0.20;;;;;;;;;;5112045;28;20042;-75
2021/04/30 02:28:45;;;;;;;0.20;0.20;;;;;;;;;;5112240;28;20016;-74
2021/04/30 02:31:14;;;;;;;0.20;0.15;;;;;;;;;;5111826;28;20108;-75
2021/04/30 02:33:41;;;;;;;0.20;0.20;;;;;;;;;;5111571;28;20023;-74
2021/04/30 02:36:07;;;;;;;0.20;0.20;;;;;;;;;;5111048;28;20020;-74
2021/04/30 02:38:34;;;;;;;0.20;0.20;;;;;;;;;;5112183;28;20043;-74
2021/04/30 02:41:00;;;;;;;0.38;0.35;;;;;;;;;;5111485;28;20092;-74
2021/04/30 02:43:26;;;;;;;0.10;0.10;;;;;;;;;;5111545;28;20501;-74
2021/04/30 02:45:52;;;;;;;0.50;0.20;;;;;;;;;;5111521;28;20027;-74
2021/04/30 02:48:27;;;;;;;0.63;0.63;;;;;;;;;;5111787;28;20091;-74
2021/04/30 02:50:54;;;;;;;0.22;0.22;;;;;;;;;;5110299;28;20039;-74
2021/04/30 02:53:20;;;;;;;0.73;0.40;;;;;;;;;;5110349;28;20069;-75
2021/04/30 02:55:46;;;;;;;0.20;0.20;;;;;;;;;;5111012;28;20424;-74
2021/04/30 02:58:12;;;;;;;0.68;0.35;;;;;;;;;;5112164;28;20020;-75
2021/04/30 03:00:38;;;;;;;0.30;0.30;;;;;;;;;;5111059;28;20031;-74
2021/04/30 03:03:05;;;;;;;0.20;0.20;;;;;;;;;;5110825;28;20288;-75
2021/04/30 03:05:31;;;;;;;0.13;0.10;;;;;;;;;;5111308;28;20059;-75
2021/04/30 03:07:57;;;;;;;0.22;0.22;;;;;;;;;;5110899;28;20668;-74
2021/04/30 03:10:23;;;;;;;0.20;0.20;;;;;;;;;;5111484;28;20024;-74
2021/04/30 03:12:51;;;;;;;0.25;0.25;;;;;;;;;;5110470;28;20023;-75
2021/04/30 03:15:17;;;;;;;0.25;0.25;;;;;;;;;;5111822;28;20031;-74
2021/04/30 03:17:44;;;;;;;0.10;0.10;;;;;;;;;;5110353;28;20058;-74
2021/04/30 03:20:10;;;;;;;0.10;0.10;;;;;;;;;;5110677;28;20061;-74
2021/04/30 03:22:37;;;;;;;0.22;0.22;;;;;;;;;;5110859;28;20390;-73
2021/04/30 03:25:03;;;;;;;0.10;0.10;;;;;;;;;;5110989;28;20019;-75
2021/04/30 03:27:29;;;;;;;0.10;0.10;;;;;;;;;;5111706;28;20489;-74
2021/04/30 03:29:55;;;;;;;0.10;0.10;;;;;;;;;;5110936;28;20482;-74
2021/04/30 03:32:22;;;;;;;0.32;0.32;;;;;;;;;;5110916;28;20026;-75
2021/04/30 03:34:48;;;;;;;0.17;0.17;;;;;;;;;;5108620;28;20023;-74
2021/04/30 03:37:14;;;;;;;0.30;0.30;;;;;;;;;;5110392;28;20033;-74
2021/04/30 03:39:40;;;;;;;0.73;0.73;;;;;;;;;;5109315;28;20079;-74
2021/04/30 03:42:06;;;;;;;0.20;0.15;;;;;;;;;;5110893;28;20436;-75
2021/04/30 03:44:32;;;;;;;0.47;0.10;;;;;;;;;;5110516;28;20085;-75
2021/04/30 03:46:58;;;;;;;0.10;0.10;;;;;;;;;;5110362;28;20039;-75
2021/04/30 03:49:25;;;;;;;0.20;0.20;;;;;;;;;;5109958;28;20054;-75
2021/04/30 03:51:51;;;;;;;0.77;0.65;;;;;;;;;;5110053;28;20016;-73
2021/04/30 03:54:17;;;;;;;0.57;0.20;;;;;;;;;;5110322;28;20049;-74
2021/04/30 03:56:44;;;;;;;0.20;0.20;;;;;;;;;;5109247;28;20054;-73
2021/04/30 03:59:10;;;;;;;0.20;0.20;;;;;;;;;;5109450;28;20444;-74
2021/04/30 04:01:36;;;;;;;0.40;0.40;;;;;;;;;;5110632;28;20516;-74
2021/04/30 04:04:02;;;;;;;0.10;0.10;;;;;;;;;;5109880;28;20100;-75
2021/04/30 04:06:28;;;;;;;0.30;0.30;;;;;;;;;;5108917;28;20031;-75
2021/04/30 04:08:54;;;;;;;0.17;0.17;;;;;;;;;;5109108;28;20567;-75
2021/04/30 04:11:21;;;;;;;0.20;0.20;;;;;;;;;;5110317;28;20039;-75
2021/04/30 04:13:47;;;;;;;0.10;0.10;;;;;;;;;;5109459;28;20117;-75
2021/04/30 04:16:13;;;;;;;1.58;0.30;;;;;;;;;;5110108;28;20035;-74
2021/04/30 04:18:39;;;;;;;0.10;0.10;;;;;;;;;;5108429;28;20034;-74
2021/04/30 04:21:05;;;;;;;0.20;0.20;;;;;;;;;;5109963;28;20114;-75
2021/04/30 04:23:31;;;;;;;0.10;0.10;;;;;;;;;;5108956;28;20054;-75
2021/04/30 04:25:57;;;;;;;0.20;0.20;;;;;;;;;;5110055;28;20094;-74
2021/04/30 04:28:23;;;;;;;0.10;0.10;;;;;;;;;;5109391;28;20019;-74
2021/04/30 04:30:52;;;;;;;0.15;0.15;;;;;;;;;;5108767;28;20034;-75
2021/04/30 04:33:18;;;;;;;0.10;0.10;;;;;;;;;;5110116;28;20558;-74
2021/04/30 04:35:44;;;;;;;0.10;0.10;;;;;;;;;;5107919;28;20494;-74
2021/04/30 04:38:10;;;;;;;0.20;0.20;;;;;;;;;;5108882;28;20061;-74
2021/04/30 04:40:36;;;;;;;0.38;0.20;;;;;;;;;;5108461;28;20031;-74
2021/04/30 04:43:02;;;;;;;0.10;0.10;;;;;;;;;;5109476;28;20032;-74
2021/04/30 04:45:29;;;;;;;0.15;0.15;;;;;;;;;;5109130;28;20027;-74
2021/04/30 04:47:55;;;;;;;0.10;0.10;;;;;;;;;;5109247;28;20032;-75
2021/04/30 04:50:21;;;;;;;0.17;0.15;;;;;;;;;;5109047;28;20251;-74
2021/04/30 04:52:47;;;;;;;0.20;0.20;;;;;;;;;;5109184;28;20521;-74
2021/04/30 04:55:16;;;;;;;0.10;0.10;;;;;;;;;;5108980;28;20440;-74
2021/04/30 04:57:42;;;;;;;0.10;0.10;;;;;;;;;;5109166;28;20050;-74
2021/04/30 05:00:09;;;;;;;0.20;0.20;;;;;;;;;;5108416;28;20047;-74
2021/04/30 05:02:35;;;;;;;0.35;0.10;;;;;;;;;;5108609;28;20308;-74
2021/04/30 05:05:02;;;;;;;0.75;0.20;;;;;;;;;;5108856;28;20099;-74
2021/04/30 05:07:28;;;;;;;0.10;0.10;;;;;;;;;;5108889;28;20024;-74
2021/04/30 05:09:54;;;;;;;0.10;0.10;;;;;;;;;;5107365;28;20035;-74
2021/04/30 05:12:20;;;;;;;0.75;0.10;;;;;;;;;;5108424;28;20106;-74
2021/04/30 05:14:46;;;;;;;0.43;0.20;;;;;;;;;;5107181;28;20443;-74
2021/04/30 05:17:13;;;;;;;0.30;0.20;;;;;;;;;;5109591;28;20020;-75
2021/04/30 05:19:39;;;;;;;0.20;0.20;;;;;;;;;;5108424;28;20047;-74
2021/04/30 05:22:08;;;;;;;0.20;0.20;;;;;;;;;;5108858;28;20030;-74
2021/04/30 05:24:35;;;;;;;0.10;0.10;;;;;;;;;;5108386;28;20039;-74
2021/04/30 05:27:01;;;;;;;0.22;0.10;;;;;;;;;;5108727;28;20031;-74
2021/04/30 05:29:27;;;;;;;0.10;0.10;;;;;;;;;;5108838;28;20055;-74
2021/04/30 05:31:53;;;;;;;0.10;0.10;;;;;;;;;;5107815;28;20038;-74
2021/04/30 05:34:19;;;;;;;0.47;0.47;;;;;;;;;;5107623;28;20184;-75
2021/04/30 05:36:45;;;;;;;0.28;0.20;;;;;;;;;;5107346;28;20067;-74
2021/04/30 05:39:11;;;;;;;0.63;0.10;;;;;;;;;;5108925;28;20054;-75
2021/04/30 05:41:37;;;;;;;0.10;0.10;;;;;;;;;;5108005;28;20035;-74
2021/04/30 05:44:03;;;;;;;0.10;0.10;;;;;;;;;;5108106;28;20020;-75
2021/04/30 05:46:29;;;;;;;0.08;0.08;;;;;;;;;;5109271;28;20028;-74
2021/04/30 05:48:55;;;;;;;0.10;0.10;;;;;;;;;;5108588;28;20030;-74
2021/04/30 05:51:21;;;;;;;0.20;0.10;;;;;;;;;;5108196;28;20080;-75
2021/04/30 05:53:47;;;;;;;1.10;0.20;;;;;;;;;;5107417;28;20034;-74
2021/04/30 05:56:13;;;;;;;0.20;0.20;;;;;;;;;;5111269;28;20102;-73
2021/04/30 05:58:39;;;;;;;1.63;0.20;;;;;;;;;;5113088;28;20030;-74
2021/04/30 06:01:05;;;;;;;2.47;0.50;;;;;;;;;;5112331;28;20207;-74
2021/04/30 06:03:31;;;;;;;0.10;0.10;;;;;;;;;;5108662;28;20028;-74
2021/04/30 06:05:58;;;;;;;0.10;0.10;;;;;;;;;;5110163;28;20113;-74
2021/04/30 06:08:24;;;;;;;0.55;0.20;;;;;;;;;;5109318;28;20024;-74
2021/04/30 06:10:50;;;;;;;0.80;0.20;;;;;;;;;;5109307;28;20062;-75
2021/04/30 06:13:16;;;;;;;0.25;0.25;;;;;;;;;;5109255;28;20020;-76
2021/04/30 06:15:42;;;;;;;0.35;0.35;;;;;;;;;;5108604;27;20111;-75
2021/04/30 06:18:08;;;;;;;1.63;0.20;;;;;;;;;;5105579;27;20501;-75
2021/04/30 06:20:34;;;;;;;0.88;0.32;;;;;;;;;;5109045;28;20263;-75
2021/04/30 06:23:00;;;;;;;0.40;0.38;;;;;;;;;;5107018;28;20561;-75
2021/04/30 06:25:26;;;;;;;0.30;0.20;;;;;;;;;;5107295;28;20303;-75
2021/04/30 06:27:52;;;;;;;0.25;0.25;;;;;;;;;;5091487;27;20024;-75
2021/04/30 06:30:18;;;;;;;1.30;0.30;;;;;;;;;;5093717;27;20081;-75
2021/04/30 06:32:44;;;;;;;0.20;0.20;;;;;;;;;;5097258;28;20048;-74
2021/04/30 06:35:11;;;;;;;0.40;0.20;;;;;;;;;;5105176;28;20015;-75
2021/04/30 06:37:38;;;;;;;1.75;0.30;;;;;;;;;;5107303;28;20498;-74
2021/04/30 06:40:04;;;;;;;3.00;0.47;;;;;;;;;;5107571;28;20396;-75
2021/04/30 06:42:30;;;;;;;0.57;0.40;;;;;;;;;;5104298;28;20016;-74
2021/04/30 06:44:57;;;;;;;0.75;0.20;;;;;;;;;;5090187;28;20039;-74
2021/04/30 06:47:23;;;;;;;0.43;0.35;;;;;;;;;;5092329;28;20020;-75
2021/04/30 06:49:49;;;;;;;1.15;0.30;;;;;;;;;;5096269;28;20043;-74
2021/04/30 06:52:15;;;;;;;0.45;0.40;;;;;;;;;;5096917;28;20028;-75
2021/04/30 06:54:41;;;;;;;1.55;0.20;;;;;;;;;;5104262;28;20030;-75
2021/04/30 06:57:08;;;;;;;0.30;0.30;;;;;;;;;;5108918;28;20019;-75
2021/04/30 06:59:34;;;;;;;1.35;0.40;;;;;;;;;;5115278;27;20039;-75
2021/04/30 07:02:02;;;;;;;0.10;0.10;;;;;;;;;;5107099;28;20028;-74
2021/04/30 07:04:28;;;;;;;0.73;0.32;;;;;;;;;;5109194;28;20032;-75
2021/04/30 07:06:54;;;;;;;0.28;0.25;;;;;;;;;;5107476;28;20024;-74
2021/04/30 07:09:20;;;;;;;1.80;0.80;;;;;;;;;;5110376;28;20032;-75
2021/04/30 07:11:46;;;;;;;2.28;0.65;;;;;;;;;;5109386;28;20031;-74
2021/04/30 07:14:12;;;;;;;0.47;0.45;;;;;;;;;;5110040;28;20050;-75
2021/04/30 07:16:38;;;;;;;0.75;0.50;;;;;;;;;;5109293;28;20023;-73
2021/04/30 07:19:04;;;;;;;0.85;0.68;;;;;;;;;;5108369;28;20039;-74
2021/04/30 07:21:30;;;;;;;1.48;0.35;;;;;;;;;;5109125;28;20034;-74
2021/04/30 07:23:56;;;;;;;0.40;0.30;;;;;;;;;;5108935;28;20023;-74
2021/04/30 07:26:22;;;;;;;4.30;0.60;;;;;;;;;;5109129;28;20058;-75
2021/04/30 07:28:49;;;;;;;1.65;0.50;;;;;;;;;;5108461;28;20554;-75
2021/04/30 07:31:15;;;;;;;1.70;0.40;;;;;;;;;;5109087;28;20028;-75
2021/04/30 07:33:47;;;;;;;0.50;0.32;;;;;;;;;;5107982;28;20114;-74
2021/04/30 07:36:14;;;;;;;4.57;0.50;;;;;;;;;;5104231;28;20051;-76
2021/04/30 07:38:40;;;;;;;3.30;0.45;;;;;;;;;;5107119;28;20298;-74
2021/04/30 07:41:06;;;;;;;2.13;0.73;;;;;;;;;;5108448;28;20020;-75
2021/04/30 07:43:32;;;;;;;0.80;0.52;;;;;;;;;;5108341;28;20020;-75
2021/04/30 07:45:59;;;;;;;3.85;0.55;;;;;;;;;;5107523;28;20315;-75
2021/04/30 07:48:26;;;;;;;2.50;0.25;;;;;;;;;;5109138;28;20039;-75
2021/04/30 07:50:52;;;;;;;0.52;0.52;;;;;;;;;;5108568;28;20024;-75
2021/04/30 07:53:18;;;;;;;1.38;0.52;;;;;;;;;;5108833;28;20486;-75
2021/04/30 07:58:44;;;;;;;1.85;0.30;;;;;;;;;;5045608;28;20049;-83
2021/04/30 08:01:10;;;;;;;0.98;0.60;;;;;;;;;;5045165;28;20503;-83
2021/04/30 08:03:37;;;;;;;1.35;0.75;;;;;;;;;;5047006;28;20538;-82
2021/04/30 08:06:03;;;;;;;0.80;0.50;;;;;;;;;;5046022;28;20475;-83
2021/04/30 08:08:29;;;;;;;0.50;0.40;;;;;;;;;;5048742;28;20028;-83
2021/04/30 08:10:55;;;;;;;0.60;0.30;;;;;;;;;;5047315;28;20079;-83
2021/04/30 08:13:21;;;;;;;4.28;0.68;;;;;;;;;;5048787;28;20546;-83
2021/04/30 08:15:47;;;;;;;3.97;0.47;;;;;;;;;;5046897;28;20032;-82
2021/04/30 08:18:13;;;;;;;3.45;0.45;;;;;;;;;;5045101;28;20033;-86
2021/04/30 08:20:40;;;;;;;2.05;0.63;;;;;;;;;;5047601;28;20101;-86
2021/04/30 08:23:06;;;;;;;2.78;0.40;;;;;;;;;;5048318;28;20029;-84
2021/04/30 08:25:32;;;;;;;1.75;1.20;;;;;;;;;;5048015;28;20025;-82
2021/04/30 08:27:58;;;;;;;4.50;0.50;;;;;;;;;;5047593;28;20140;-82
2021/04/30 08:30:24;;;;;;;2.58;0.35;;;;;;;;;;5047628;28;20028;-83
2021/04/30 08:32:51;;;;;;;3.10;0.98;;;;;;;;;;5045858;28;20029;-82
2021/04/30 08:35:17;;;;;;;0.63;0.50;;;;;;;;;;5048985;28;20486;-81
2021/04/30 08:37:43;;;;;;;0.93;0.75;;;;;;;;;;5047801;28;20040;-81
2021/04/30 08:40:09;;;;;;;1.02;0.60;;;;;;;;;;5048601;28;20044;-83
2021/04/30 08:42:35;;;;;;;2.50;0.60;;;;;;;;;;5030678;28;20434;-80
2021/04/30 08:45:03;;;;;;;3.40;0.82;;;;;;;;;;5048648;28;20583;-84
2021/04/30 08:47:29;;;;;;;1.20;0.30;;;;;;;;;;5045239;28;20029;-83
2021/04/30 08:49:56;;;;;;;0.95;0.57;;;;;;;;;;5048029;28;20036;-80
2021/04/30 08:52:22;;;;;;;0.65;0.47;;;;;;;;;;5048768;28;20025;-81
2021/04/30 08:54:52;;;;;;;0.98;0.40;;;;;;;;;;5048063;28;20039;-80
2021/04/30 08:57:24;;;;;;;3.22;0.90;;;;;;;;;;5056181;28;20062;-81
2021/04/30 08:59:55;;;;;;;1.67;0.40;;;;;;;;;;5054361;28;20032;-81
2021/04/30 09:02:21;;;;;;;0.77;0.50;;;;;;;;;;5047707;28;20544;-81
2021/04/30 09:04:47;;;;;;;1.00;0.75;;;;;;;;;;5047094;28;20028;-80
2021/04/30 09:07:19;;;;;;;0.40;0.40;;;;;;;;;;5047204;28;20040;-80
2021/04/30 09:09:58;;;;;;;0.95;0.50;;;;;;;;;;5047767;28;20070;-80
2021/04/30 09:12:25;;;;;;;3.70;0.70;;;;;;;;;;5048241;28;20053;-81
2021/04/30 09:14:51;;;;;;;3.70;0.82;;;;;;;;;;5047556;28;20029;-81
2021/04/30 09:17:17;;;;;;;3.22;0.82;;;;;;;;;;5030594;28;20039;-84
2021/04/30 09:19:55;;;;;;;2.15;0.55;;;;;;;;;;5046894;28;20032;-84
2021/04/30 09:22:23;;;;;;;0.32;0.30;;;;;;;;;;5029899;28;20666;-84
2021/04/30 09:24:55;;;;;;;1.02;0.20;;;;;;;;;;5062163;28;20021;-84
2021/04/30 09:27:48;;;;;;;0.28;0.28;;;;;;;;;;5067956;28;20162;-85
2021/04/30 09:30:17;;;;;;;0.47;0.47;;;;;;;;;;5064580;28;20028;-84
2021/04/30 09:33:02;;;;;;;0.77;0.77;;;;;;;;;;5067508;28;20028;-82
2021/04/30 09:35:28;;;;;;;1.52;0.60;;;;;;;;;;5067895;28;20055;-84
2021/04/30 09:37:57;;;;;;;1.70;0.68;;;;;;;;;;5047173;28;20403;-83
2021/04/30 09:40:30;;;;;;;1.05;0.52;;;;;;;;;;5046827;28;20053;-84
2021/04/30 09:43:03;;;;;;;0.93;0.40;;;;;;;;;;5036401;28;20129;-83
2021/04/30 09:45:31;;;;;;;0.35;0.35;;;;;;;;;;5032352;28;20116;-83
2021/04/30 09:47:59;;;;;;;0.45;0.40;;;;;;;;;;5041949;28;20369;-80
2021/04/30 09:50:27;;;;;;;1.27;0.98;;;;;;;;;;5031404;28;20026;-81
2021/04/30 09:52:57;;;;;;;0.85;0.60;;;;;;;;;;5047597;28;20407;-82
2021/04/30 09:55:23;;;;;;;0.47;0.20;;;;;;;;;;5031721;28;20061;-83
2021/04/30 09:57:50;;;;;;;0.70;0.50;;;;;;;;;;5027364;28;20090;-82
2021/04/30 10:00:17;;;;;;;0.57;0.50;;;;;;;;;;5032302;28;20612;-83
2021/04/30 10:02:45;;;;;;;0.93;0.70;;;;;;;;;;5038569;28;20025;-82
2021/04/30 10:05:12;;;;;;;3.42;0.73;;;;;;;;;;5029451;28;20018;-82
2021/04/30 10:07:39;;;;;;;2.08;0.57;;;;;;;;;;5026595;28;20637;-82
2021/04/30 10:10:05;;;;;;;2.50;1.38;;;;;;;;;;5027117;28;20056;-81
2021/04/30 10:12:32;;;;;;;1.55;0.68;;;;;;;;;;5027542;28;20037;-83
2021/04/30 10:14:58;;;;;;;0.80;0.75;;;;;;;;;;5032530;28;20041;-84
2021/04/30 10:17:25;;;;;;;0.93;0.68;;;;;;;;;;5042256;28;20506;-81
2021/04/30 10:19:51;;;;;;;2.25;0.70;;;;;;;;;;5046726;28;20072;-81
2021/04/30 10:22:22;;;;;;;1.92;1.63;;;;;;;;;;5019935;28;20029;-82
2021/04/30 10:24:52;;;;;;;2.25;1.02;;;;;;;;;;5033045;28;20036;-81
2021/04/30 10:27:27;;;;;;;2.55;0.55;;;;;;;;;;5031350;28;20152;-82
2021/04/30 10:30:02;;;;;;;2.22;1.08;;;;;;;;;;5027613;28;20136;-81
2021/04/30 10:32:32;;;;;;;0.60;0.60;;;;;;;;;;5027891;28;20110;-81
2021/04/30 10:34:59;;;;;;;1.23;0.95;;;;;;;;;;5034356;28;20033;-80
2021/04/30 10:37:31;;;;;;;0.65;0.40;;;;;;;;;;5028712;28;20556;-81
2021/04/30 10:39:59;;;;;;;3.00;0.90;;;;;;;;;;5041311;28;20037;-82
2021/04/30 10:42:31;;;;;;;1.73;0.95;;;;;;;;;;5030449;28;20021;-82
2021/04/30 10:44:59;;;;;;;0.88;0.50;;;;;;;;;;5045207;28;20033;-82
2021/04/30 10:47:25;;;;;;;1.23;1.02;;;;;;;;;;5048860;28;20024;-82
2021/04/30 10:50:10;;;;;;;4.72;0.75;;;;;;;;;;5047580;28;20025;-81
2021/04/30 10:52:36;;;;;;;1.63;0.43;;;;;;;;;;5051584;28;20071;-81
2021/04/30 10:55:02;;;;;;;0.82;0.50;;;;;;;;;;5046382;28;20099;-81
2021/04/30 10:57:28;;;;;;;0.68;0.68;;;;;;;;;;5046867;28;20654;-81
2021/04/30 10:59:54;;;;;;;0.95;0.70;;;;;;;;;;5046553;28;20724;-81
2021/04/30 11:02:21;;;;;;;0.93;0.50;;;;;;;;;;5050886;28;20025;-81
2021/04/30 11:05:06;;;;;;;2.08;0.88;;;;;;;;;;5022815;28;20388;-82
2021/04/30 11:07:32;;;;;;;0.68;0.47;;;;;;;;;;5049282;28;20716;-81
2021/04/30 11:09:58;;;;;;;1.30;0.73;;;;;;;;;;5049997;28;20119;-82
2021/04/30 11:12:25;;;;;;;3.25;1.52;;;;;;;;;;5042422;28;20033;-81
2021/04/30 11:15:05;;;;;;;0.77;0.77;;;;;;;;;;5042854;28;20082;-82
2021/04/30 11:18:04;;;;;;;0.40;0.40;;;;;;;;;;5049568;28;20407;-82
2021/04/30 11:20:34;;;;;;;0.85;0.45;;;;;;;;;;5027011;28;20129;-82
2021/04/30 11:23:13;;;;;;;0.47;0.43;;;;;;;;;;5049456;28;20087;-81
2021/04/30 11:26:03;;;;;;;1.60;0.85;;;;;;;;;;5045612;28;20027;-81
2021/04/30 11:28:30;;;;;;;1.20;0.93;;;;;;;;;;5069762;28;20029;-81
2021/04/30 11:31:00;;;;;;;0.90;0.35;;;;;;;;;;5065842;28;20028;-83
2021/04/30 11:33:26;;;;;;;1.98;0.88;;;;;;;;;;5067707;28;20494;-83
2021/04/30 11:35:52;;;;;;;2.35;0.70;;;;;;;;;;5030979;28;20121;-83
2021/04/30 11:38:18;;;;;;;0.60;0.60;;;;;;;;;;5040971;28;20634;-82
2021/04/30 11:40:44;;;;;;;0.65;0.55;;;;;;;;;;5021594;28;20514;-82
2021/04/30 11:43:10;;;;;;;0.70;0.70;;;;;;;;;;5049762;28;20096;-82
2021/04/30 11:45:39;;;;;;;3.13;0.55;;;;;;;;;;5031402;28;20394;-83
2021/04/30 11:48:05;;;;;;;3.53;0.73;;;;;;;;;;5049317;28;20039;-81
2021/04/30 11:50:32;;;;;;;1.38;0.60;;;;;;;;;;5054050;28;20056;-81
2021/04/30 11:52:58;;;;;;;1.02;0.95;;;;;;;;;;5069115;28;20043;-81
2021/04/30 11:55:24;;;;;;;3.30;0.63;;;;;;;;;;5070154;28;20586;-80
2021/04/30 11:57:51;;;;;;;1.83;0.65;;;;;;;;;;5069199;28;20148;-81
2021/04/30 12:00:25;;;;;;;1.88;0.98;;;;;;;;;;5069508;28;20031;-81
2021/04/30 12:03:06;;;;;;;2.00;0.82;;;;;;;;;;5069169;28;20052;-80
2021/04/30 12:05:32;;;;;;;0.90;0.70;;;;;;;;;;5068660;28;20074;-80
2021/04/30 12:07:59;;;;;;;2.33;0.50;;;;;;;;;;5060445;28;20036;-80
2021/04/30 12:10:26;;;;;;;2.15;0.47;;;;;;;;;;5049813;28;20029;-79
2021/04/30 12:12:53;;;;;;;0.40;0.40;;;;;;;;;;5049291;28;20070;-80
2021/04/30 12:15:26;;;;;;;1.10;0.55;;;;;;;;;;5049426;28;20518;-81
2021/04/30 12:17:52;;;;;;;2.63;0.80;;;;;;;;;;5049596;28;20039;-81
2021/04/30 12:20:18;;;;;;;0.82;0.82;;;;;;;;;;5049005;28;20033;-79
2021/04/30 12:22:46;;;;;;;0.98;0.70;;;;;;;;;;5059208;28;20114;-78
2021/04/30 12:25:16;;;;;;;2.55;1.38;;;;;;;;;;5049399;28;20494;-79
2021/04/30 12:27:42;;;;;;;1.13;0.98;;;;;;;;;;5047597;28;20108;-77
2021/04/30 12:30:09;;;;;;;1.00;0.90;;;;;;;;;;5062833;28;20035;-78
2021/04/30 12:32:35;;;;;;;1.50;0.95;;;;;;;;;;5069224;28;20545;-77
2021/04/30 12:35:02;;;;;;;1.85;0.80;;;;;;;;;;5068733;28;20043;-78
2021/04/30 12:37:28;;;;;;;2.28;0.90;;;;;;;;;;5068265;28;20028;-77
2021/04/30 12:39:54;;;;;;;0.80;0.80;;;;;;;;;;5068281;28;20037;-77
2021/04/30 12:42:20;;;;;;;0.50;0.50;;;;;;;;;;5055395;28;20059;-78
2021/04/30 12:44:56;;;;;;;2.67;0.90;;;;;;;;;;5048684;28;20506;-79
2021/04/30 12:47:26;;;;;;;2.00;0.98;;;;;;;;;;5048748;28;20483;-78
2021/04/30 12:49:53;;;;;;;1.05;0.73;;;;;;;;;;5047988;28;20025;-79
2021/04/30 12:52:20;;;;;;;2.15;0.65;;;;;;;;;;5047998;28;20070;-79
2021/04/30 12:54:47;;;;;;;0.90;0.90;;;;;;;;;;5046134;28;20099;-78
2021/04/30 12:57:13;;;;;;;1.77;1.15;;;;;;;;;;5049007;28;20057;-78
2021/04/30 12:59:59;;;;;;;1.48;0.88;;;;;;;;;;5048767;28;20037;-78
2021/04/30 13:02:29;;;;;;;0.85;0.60;;;;;;;;;;5048336;28;20090;-78
2021/04/30 13:04:55;;;;;;;1.35;1.10;;;;;;;;;;5046561;28;20028;-77
2021/04/30 13:07:22;;;;;;;0.70;0.70;;;;;;;;;;5047614;28;20559;-78
2021/04/30 13:09:48;;;;;;;0.70;0.70;;;;;;;;;;5047737;28;20028;-78
2021/04/30 13:12:15;;;;;;;1.55;0.65;;;;;;;;;;5048658;28;20025;-78
2021/04/30 13:14:48;;;;;;;1.23;0.60;;;;;;;;;;5047979;28;20036;-78
2021/04/30 13:17:14;;;;;;;1.42;1.25;;;;;;;;;;5048396;28;20479;-78
2021/04/30 13:19:41;;;;;;;1.50;1.10;;;;;;;;;;5047573;28;20051;-78
2021/04/30 13:22:12;;;;;;;3.13;0.93;;;;;;;;;;5048294;28;20043;-79
2021/04/30 13:24:39;;;;;;;1.45;0.85;;;;;;;;;;5048441;28;20036;-78
2021/04/30 13:27:07;;;;;;;1.55;0.90;;;;;;;;;;5047047;28;20086;-78
2021/04/30 13:29:34;;;;;;;1.10;0.93;;;;;;;;;;5047783;28;20029;-78
2021/04/30 13:32:01;;;;;;;2.50;0.90;;;;;;;;;;5046473;28;20036;-77
2021/04/30 13:34:41;;;;;;;1.15;0.90;;;;;;;;;;5047426;28;20033;-78
2021/04/30 13:37:08;;;;;;;1.90;1.00;;;;;;;;;;5046980;28;20041;-78
2021/04/30 13:39:36;;;;;;;1.85;0.75;;;;;;;;;;5047505;28;20123;-78
2021/04/30 13:42:02;;;;;;;1.13;0.95;;;;;;;;;;5047319;28;20043;-77
2021/04/30 13:44:29;;;;;;;1.05;0.63;;;;;;;;;;5047960;28;20087;-78
2021/04/30 13:46:56;;;;;;;1.80;1.20;;;;;;;;;;5047235;28;20047;-77
2021/04/30 13:49:41;;;;;;;1.17;1.08;;;;;;;;;;5054084;28;20032;-77
2021/04/30 13:52:07;;;;;;;2.03;1.25;;;;;;;;;;5044643;28;20415;-78
2021/04/30 13:54:33;;;;;;;1.17;0.98;;;;;;;;;;5034780;28;20032;-78
2021/04/30 13:56:59;;;;;;;0.80;0.80;;;;;;;;;;5047428;28;20056;-78
2021/04/30 13:59:34;;;;;;;2.67;1.00;;;;;;;;;;5043288;28;20641;-78
2021/04/30 14:02:00;;;;;;;4.43;1.33;;;;;;;;;;5067241;28;20548;-78
2021/04/30 14:04:26;;;;;;;1.73;1.50;;;;;;;;;;5069036;28;20055;-78
2021/04/30 14:06:53;;;;;;;1.17;0.93;;;;;;;;;;5052051;28;20124;-77
2021/04/30 14:09:19;;;;;;;7.35;1.50;;;;;;;;;;5049448;28;20049;-79
2021/04/30 14:11:45;;;;;;;4.80;3.10;;;;;;;;;;5051695;28;20505;-77
2021/04/30 14:14:11;;;;;;;1.60;1.50;;;;;;;;;;5051001;28;20025;-78
2021/04/30 14:16:37;;;;;;;5.65;1.90;;;;;;;;;;5050460;28;20035;-78
2021/04/30 14:19:03;;;;;;;1.63;1.50;;;;;;;;;;5053480;28;20491;-79
2021/04/30 14:21:30;;;;;;;2.63;1.85;;;;;;;;;;5053325;28;20033;-82
2021/04/30 14:24:01;;;;;;;4.75;1.70;;;;;;;;;;5035414;28;20553;-79
2021/04/30 14:26:28;;;;;;;1.75;1.33;;;;;;;;;;5053343;28;20024;-80
2021/04/30 14:28:54;;;;;;;4.07;2.20;;;;;;;;;;5052433;28;20510;-81
2021/04/30 14:31:20;;;;;;;5.53;2.67;;;;;;;;;;5053459;28;20066;-80
2021/04/30 14:33:46;;;;;;;5.65;2.20;;;;;;;;;;5053027;28;20565;-80
2021/04/30 14:36:12;;;;;;;4.47;1.75;;;;;;;;;;5053054;28;20025;-81
2021/04/30 14:38:38;;;;;;;2.83;1.38;;;;;;;;;;5052567;28;20072;-80
2021/04/30 14:41:06;;;;;;;1.35;1.25;;;;;;;;;;5052914;28;20465;-80
2021/04/30 14:43:33;;;;;;;2.72;2.30;;;;;;;;;;5051893;28;20085;-81
2021/04/30 14:45:59;;;;;;;4.60;1.88;;;;;;;;;;5052214;28;20559;-79
2021/04/30 14:48:25;;;;;;;2.83;2.38;;;;;;;;;;5057724;28;20123;-80